Time;durP1;ratioP1;P1;durP2;ratioP2;P2;SDS_P1;SDS_P2;PMS_P1;PMS_P2;Temp;Humidity;BMP_temperature;BMP_pressure;BME280_temperature;BME280_humidity;BME280_pressure;Samples;Min_cycle;Max_cycle;Signal;HPM_P1;HPM_P2
2021/06/28 00:01:27;;;;;;;4.20;2.45;;;23.90;45.60;;;;;;5077594;28;20033;-74
2021/06/28 00:03:53;;;;;;;2.83;2.55;;;23.90;45.70;;;;;;5072516;28;20039;-76
2021/06/28 00:06:20;;;;;;;3.47;2.42;;;23.90;45.40;;;;;;5072476;28;20028;-75
2021/06/28 00:08:47;;;;;;;4.68;2.50;;;23.80;46.00;;;;;;5081745;28;20028;-75
2021/06/28 00:11:13;;;;;;;9.48;2.30;;;23.80;46.20;;;;;;5091008;28;20091;-75
2021/06/28 00:13:41;;;;;;;3.17;2.65;;;23.80;45.80;;;;;;5096231;28;20108;-75
2021/06/28 00:16:07;;;;;;;2.45;2.20;;;23.80;46.00;;;;;;5088914;28;20028;-74
2021/06/28 00:18:33;;;;;;;2.63;2.40;;;23.70;45.80;;;;;;5095082;28;20058;-75
2021/06/28 00:20:59;;;;;;;5.35;2.50;;;23.70;45.80;;;;;;5096470;28;20024;-75
2021/06/28 00:23:25;;;;;;;6.30;3.28;;;23.70;46.00;;;;;;5096361;28;20366;-75
2021/06/28 00:25:51;;;;;;;2.78;2.50;;;23.60;46.10;;;;;;5096244;28;20028;-75
2021/06/28 00:28:17;;;;;;;7.20;3.78;;;23.60;46.00;;;;;;5094839;28;20035;-75
2021/06/28 00:30:44;;;;;;;9.05;4.10;;;23.60;47.00;;;;;;5096278;28;20423;-74
2021/06/28 00:33:13;;;;;;;11.40;4.47;;;23.60;46.70;;;;;;5094361;28;20103;-75
2021/06/28 00:35:40;;;;;;;9.75;3.97;;;23.50;46.50;;;;;;5096123;28;20477;-75
2021/06/28 00:38:06;;;;;;;8.13;3.80;;;23.50;46.50;;;;;;5095619;28;20028;-75
2021/06/28 00:40:33;;;;;;;10.95;4.25;;;23.50;46.80;;;;;;5093777;28;20035;-75
2021/06/28 00:42:59;;;;;;;7.90;3.88;;;23.50;46.90;;;;;;5095787;28;20021;-75
2021/06/28 00:45:27;;;;;;;7.85;3.47;;;23.50;47.20;;;;;;5094637;28;20071;-75
2021/06/28 00:47:59;;;;;;;13.38;4.80;;;23.40;47.30;;;;;;5094494;28;20060;-75
2021/06/28 00:50:26;;;;;;;8.30;4.65;;;23.40;47.40;;;;;;5095676;28;20086;-75
2021/06/28 00:52:56;;;;;;;8.90;3.65;;;23.40;47.40;;;;;;5095736;28;20103;-74
2021/06/28 00:55:22;;;;;;;7.25;3.78;;;23.30;47.70;;;;;;5095640;28;20104;-75
2021/06/28 00:57:48;;;;;;;5.75;3.45;;;23.30;47.70;;;;;;5095636;28;20028;-75
2021/06/28 01:00:15;;;;;;;10.85;4.03;;;23.30;47.80;;;;;;5095594;28;20035;-75
2021/06/28 01:02:41;;;;;;;5.18;3.03;;;23.20;47.90;;;;;;5095615;28;20190;-75
2021/06/28 01:05:10;;;;;;;5.60;3.80;;;23.20;48.20;;;;;;5078180;28;20541;-76
2021/06/28 01:07:37;;;;;;;6.90;3.28;;;23.20;48.40;;;;;;5075181;28;20021;-75
2021/06/28 01:10:05;;;;;;;5.32;3.15;;;23.10;48.70;;;;;;5075230;28;20059;-75
2021/06/28 01:12:31;;;;;;;4.57;3.00;;;23.10;48.40;;;;;;5075233;28;20501;-75
2021/06/28 01:14:57;;;;;;;6.55;3.50;;;23.00;48.40;;;;;;5075159;28;20020;-74
2021/06/28 01:17:24;;;;;;;4.50;3.13;;;23.00;48.50;;;;;;5075037;28;20036;-75
2021/06/28 01:20:19;;;;;;;5.20;3.10;;;23.00;48.40;;;;;;5090607;28;20478;-75
2021/06/28 01:22:49;;;;;;;9.15;3.97;;;23.00;48.90;;;;;;5074472;28;20032;-75
2021/06/28 01:25:18;;;;;;;7.28;3.40;;;23.00;49.00;;;;;;5074346;28;20099;-75
2021/06/28 01:27:44;;;;;;;7.80;4.50;;;22.90;49.30;;;;;;5091835;28;20031;-75
2021/06/28 01:30:14;;;;;;;5.80;3.85;;;22.90;49.90;;;;;;5093222;28;20024;-75
2021/06/28 01:32:42;;;;;;;4.35;2.95;;;22.90;50.20;;;;;;5093971;28;20465;-75
2021/06/28 01:35:09;;;;;;;2.85;2.45;;;22.90;50.00;;;;;;5094981;28;20024;-75
2021/06/28 01:37:35;;;;;;;6.30;3.15;;;22.90;49.70;;;;;;5093283;28;20044;-75
2021/06/28 01:40:05;;;;;;;6.93;3.40;;;22.80;49.70;;;;;;5094774;28;20477;-74
2021/06/28 01:42:32;;;;;;;4.63;3.17;;;22.80;49.80;;;;;;5094801;28;20024;-75
2021/06/28 01:44:58;;;;;;;3.85;2.92;;;22.80;49.50;;;;;;5093471;28;20057;-75
2021/06/28 01:47:25;;;;;;;4.03;2.38;;;22.80;49.40;;;;;;5093309;28;20111;-75
2021/06/28 01:49:50;;;;;;;4.68;3.03;;;22.70;49.30;;;;;;5094431;28;20091;-75
2021/06/28 01:52:17;;;;;;;6.43;2.80;;;22.70;49.80;;;;;;5092863;28;20116;-75
2021/06/28 01:54:43;;;;;;;4.57;2.80;;;22.70;50.00;;;;;;5093505;28;20382;-75
2021/06/28 01:57:09;;;;;;;5.43;3.20;;;22.70;50.10;;;;;;5080652;28;20031;-75
2021/06/28 01:59:37;;;;;;;5.53;2.92;;;22.70;50.20;;;;;;5078801;28;20532;-75
2021/06/28 02:02:05;;;;;;;6.45;3.13;;;22.70;50.10;;;;;;5094448;28;20028;-74
2021/06/28 02:04:31;;;;;;;7.15;2.80;;;22.70;50.40;;;;;;5094344;28;20028;-75
2021/06/28 02:06:58;;;;;;;4.97;2.40;;;22.60;50.10;;;;;;5094292;28;20032;-75
2021/06/28 02:09:24;;;;;;;3.83;2.50;;;22.60;50.10;;;;;;5094175;28;20047;-75
2021/06/28 02:11:53;;;;;;;4.35;2.33;;;22.60;50.40;;;;;;5094179;28;20474;-75
2021/06/28 02:14:19;;;;;;;8.85;3.03;;;22.50;51.00;;;;;;5082893;28;20051;-75
2021/06/28 02:16:47;;;;;;;9.98;3.20;;;22.60;50.60;;;;;;5073896;28;20028;-76
2021/06/28 02:19:16;;;;;;;6.45;3.25;;;22.60;51.20;;;;;;5073841;28;20048;-75
2021/06/28 02:21:44;;;;;;;11.73;4.10;;;22.50;51.20;;;;;;5075424;28;20470;-75
2021/06/28 02:24:10;;;;;;;7.15;3.33;;;22.50;51.60;;;;;;5094073;28;20424;-75
2021/06/28 02:26:36;;;;;;;6.30;3.17;;;22.50;51.30;;;;;;5085289;28;20036;-76
2021/06/28 02:29:03;;;;;;;8.40;3.45;;;22.50;51.40;;;;;;5073504;28;20021;-75
2021/06/28 02:31:29;;;;;;;7.85;3.28;;;22.50;51.40;;;;;;5073641;28;20028;-75
2021/06/28 02:33:55;;;;;;;7.68;3.47;;;22.50;51.40;;;;;;5072318;28;20024;-76
2021/06/28 02:36:22;;;;;;;5.70;3.60;;;22.50;51.40;;;;;;5073707;28;20021;-75
2021/06/28 02:38:49;;;;;;;4.63;2.72;;;22.50;51.40;;;;;;5104219;28;20035;-75
2021/06/28 02:41:15;;;;;;;3.10;2.67;;;22.40;51.20;;;;;;5073507;28;20032;-75
2021/06/28 02:43:42;;;;;;;6.32;2.78;;;22.40;51.20;;;;;;5072254;28;20033;-75
2021/06/28 02:46:09;;;;;;;5.18;2.70;;;22.40;51.20;;;;;;5073455;28;20028;-75
2021/06/28 02:48:36;;;;;;;8.82;2.97;;;22.30;51.30;;;;;;5073287;28;20462;-75
2021/06/28 02:51:07;;;;;;;6.18;3.35;;;22.40;51.50;;;;;;5073184;28;20045;-75
2021/06/28 02:53:33;;;;;;;4.03;2.60;;;22.30;51.60;;;;;;5073333;28;20028;-75
2021/06/28 02:56:14;;;;;;;4.88;2.90;;;22.30;51.40;;;;;;5073892;28;20028;-75
2021/06/28 02:58:55;;;;;;;3.03;2.72;;;22.30;51.50;;;;;;5073324;28;20470;-75
2021/06/28 03:01:24;;;;;;;2.75;2.55;;;22.30;51.50;;;;;;5073218;28;20027;-75
2021/06/28 03:03:51;;;;;;;4.57;3.10;;;22.20;51.40;;;;;;5071882;28;20029;-75
2021/06/28 03:06:17;;;;;;;4.25;3.20;;;22.20;52.30;;;;;;5071834;28;20043;-75
2021/06/28 03:08:44;;;;;;;3.83;2.97;;;22.30;51.90;;;;;;5071702;28;20052;-75
2021/06/28 03:11:12;;;;;;;5.80;3.33;;;22.20;52.00;;;;;;5072920;28;20021;-75
2021/06/28 03:13:38;;;;;;;5.50;3.10;;;22.20;52.10;;;;;;5073063;28;20028;-75
2021/06/28 03:16:05;;;;;;;3.58;2.72;;;22.20;52.10;;;;;;5071716;28;20028;-75
2021/06/28 03:18:31;;;;;;;6.32;2.90;;;22.20;52.10;;;;;;5073233;28;20055;-75
2021/06/28 03:20:57;;;;;;;5.38;3.10;;;22.30;52.30;;;;;;5072961;28;20086;-75
2021/06/28 03:23:23;;;;;;;5.20;3.53;;;22.30;52.60;;;;;;5071687;28;20032;-75
2021/06/28 03:25:49;;;;;;;6.50;3.33;;;22.30;53.40;;;;;;5071897;28;20480;-75
2021/06/28 03:28:15;;;;;;;5.82;3.47;;;22.30;53.60;;;;;;5071534;28;20082;-75
2021/06/28 03:30:41;;;;;;;6.97;3.28;;;22.30;53.50;;;;;;5072823;28;20020;-75
2021/06/28 03:33:08;;;;;;;7.90;3.72;;;22.30;53.50;;;;;;5072650;28;20074;-76
2021/06/28 03:35:35;;;;;;;6.65;3.85;;;22.40;53.40;;;;;;5075465;28;20062;-76
2021/06/28 03:38:01;;;;;;;7.22;3.88;;;22.40;53.30;;;;;;5092867;28;20024;-75
2021/06/28 03:40:27;;;;;;;4.07;3.15;;;22.40;53.20;;;;;;5084451;28;20363;-75
2021/06/28 03:42:53;;;;;;;5.55;3.20;;;22.50;53.60;;;;;;5076011;28;20028;-75
2021/06/28 03:45:19;;;;;;;3.40;2.50;;;22.50;52.70;;;;;;5092863;28;20024;-75
2021/06/28 03:47:45;;;;;;;5.45;3.35;;;22.60;52.50;;;;;;5094274;28;20020;-75
2021/06/28 03:50:12;;;;;;;7.72;3.50;;;22.60;52.30;;;;;;5096807;28;20044;-75
2021/06/28 03:52:38;;;;;;;4.70;3.10;;;22.70;53.00;;;;;;5096946;28;20073;-75
2021/06/28 03:55:06;;;;;;;5.65;2.78;;;22.80;52.80;;;;;;5096922;28;20421;-76
2021/06/28 03:57:32;;;;;;;4.53;3.13;;;22.80;53.00;;;;;;5082359;28;20089;-76
2021/06/28 03:59:59;;;;;;;4.85;3.25;;;22.90;52.90;;;;;;5076442;28;20099;-75
2021/06/28 04:02:28;;;;;;;9.88;3.33;;;22.90;52.90;;;;;;5075069;28;20062;-76
2021/06/28 04:04:54;;;;;;;7.82;2.88;;;22.90;52.80;;;;;;5076737;28;20024;-75
2021/06/28 04:07:20;;;;;;;10.32;3.35;;;23.00;52.60;;;;;;5076459;28;20020;-75
2021/06/28 04:09:46;;;;;;;7.03;3.00;;;23.00;52.70;;;;;;5076299;28;20074;-76
2021/06/28 04:12:12;;;;;;;4.32;3.40;;;23.10;52.60;;;;;;5076280;28;20529;-76
2021/06/28 04:14:38;;;;;;;4.88;3.50;;;23.10;52.40;;;;;;5076193;28;20020;-75
2021/06/28 04:17:08;;;;;;;5.05;3.60;;;23.10;52.40;;;;;;5076009;28;20040;-76
2021/06/28 04:19:34;;;;;;;7.53;3.75;;;23.10;52.50;;;;;;5074832;28;20103;-75
2021/06/28 04:22:00;;;;;;;5.82;3.50;;;23.10;52.60;;;;;;5076149;28;20028;-76
2021/06/28 04:24:26;;;;;;;10.50;3.13;;;23.10;52.70;;;;;;5076042;28;20105;-76
2021/06/28 04:26:52;;;;;;;5.15;2.90;;;23.10;52.70;;;;;;5076365;28;20032;-75
2021/06/28 04:29:18;;;;;;;4.53;3.33;;;23.10;52.60;;;;;;5089884;28;20441;-76
2021/06/28 04:31:43;;;;;;;3.65;3.22;;;23.10;52.60;;;;;;5092087;28;20051;-76
2021/06/28 04:34:09;;;;;;;4.47;3.10;;;23.10;52.50;;;;;;5077379;28;20027;-75
2021/06/28 04:36:35;;;;;;;5.70;2.88;;;23.10;52.40;;;;;;5094805;28;20470;-76
2021/06/28 04:39:01;;;;;;;7.72;3.03;;;23.10;52.30;;;;;;5096349;28;20069;-75
2021/06/28 04:41:27;;;;;;;3.47;3.17;;;23.10;52.90;;;;;;5094868;28;20039;-76
2021/06/28 04:43:52;;;;;;;5.10;3.65;;;23.10;52.20;;;;;;5096008;28;20057;-77
2021/06/28 04:46:18;;;;;;;10.25;4.07;;;23.10;52.30;;;;;;5096035;28;20024;-76
2021/06/28 04:48:44;;;;;;;4.53;3.50;;;23.10;52.40;;;;;;5082113;28;20359;-75
2021/06/28 04:51:10;;;;;;;5.45;3.53;;;23.10;52.30;;;;;;5095468;28;20498;-76
2021/06/28 04:53:37;;;;;;;7.20;4.10;;;23.10;52.40;;;;;;5094740;28;20926;-75
2021/06/28 04:56:04;;;;;;;4.68;3.40;;;23.10;52.90;;;;;;5091860;28;20016;-76
2021/06/28 04:58:31;;;;;;;9.02;3.50;;;23.00;53.10;;;;;;5075566;28;20029;-76
2021/06/28 05:00:57;;;;;;;6.95;4.00;;;23.00;53.60;;;;;;5075626;28;20028;-75
2021/06/28 05:03:22;;;;;;;5.10;4.18;;;23.00;53.40;;;;;;5074558;28;20424;-76
2021/06/28 05:05:48;;;;;;;4.57;3.72;;;23.00;53.50;;;;;;5078207;28;20131;-76
2021/06/28 05:08:14;;;;;;;4.88;3.25;;;23.00;53.30;;;;;;5075061;28;20036;-76
2021/06/28 05:10:40;;;;;;;6.75;3.55;;;23.10;53.20;;;;;;5075242;28;20039;-76
2021/06/28 05:13:06;;;;;;;6.65;2.63;;;23.10;53.30;;;;;;5073812;28;20049;-76
2021/06/28 05:15:31;;;;;;;4.03;3.30;;;23.20;53.20;;;;;;5075327;28;20020;-76
2021/06/28 05:17:57;;;;;;;3.90;3.10;;;23.20;53.10;;;;;;5074934;28;20028;-76
2021/06/28 05:20:23;;;;;;;6.03;3.10;;;23.30;52.90;;;;;;5075282;28;20032;-76
2021/06/28 05:22:49;;;;;;;3.72;3.28;;;23.30;52.60;;;;;;5074944;28;20021;-77
2021/06/28 05:25:14;;;;;;;4.30;3.35;;;23.30;52.50;;;;;;5074956;28;20024;-77
2021/06/28 05:27:41;;;;;;;3.75;3.17;;;23.40;52.40;;;;;;5074155;28;20084;-76
2021/06/28 05:30:09;;;;;;;9.95;4.18;;;23.40;52.50;;;;;;5074808;28;20047;-76
2021/06/28 05:32:36;;;;;;;6.75;3.65;;;23.50;52.50;;;;;;5074891;28;20409;-76
2021/06/28 05:35:03;;;;;;;4.10;2.95;;;23.60;52.50;;;;;;5093641;28;20442;-77
2021/06/28 05:37:29;;;;;;;6.65;3.20;;;23.60;52.40;;;;;;5094848;28;20711;-75
2021/06/28 05:39:55;;;;;;;5.07;4.03;;;23.70;52.40;;;;;;5094638;28;20024;-76
2021/06/28 05:42:21;;;;;;;4.75;3.67;;;23.70;52.40;;;;;;5094487;28;20028;-76
2021/06/28 05:44:47;;;;;;;8.43;3.70;;;23.80;52.30;;;;;;5094561;28;20024;-77
2021/06/28 05:47:14;;;;;;;4.70;3.63;;;23.90;52.10;;;;;;5093248;28;20445;-76
2021/06/28 05:49:42;;;;;;;4.53;3.13;;;24.00;52.00;;;;;;5093012;28;20028;-77
2021/06/28 05:52:09;;;;;;;12.63;4.93;;;24.00;51.80;;;;;;5094265;28;20020;-77
2021/06/28 05:54:35;;;;;;;8.10;3.70;;;24.10;51.70;;;;;;5086287;28;20027;-76
2021/06/28 05:57:01;;;;;;;6.45;3.70;;;24.20;51.30;;;;;;5084038;28;20031;-76
2021/06/28 05:59:27;;;;;;;3.70;3.25;;;24.20;50.60;;;;;;5089836;28;20031;-76
2021/06/28 06:01:53;;;;;;;3.50;3.20;;;24.30;50.20;;;;;;5077820;28;20032;-77
2021/06/28 06:04:18;;;;;;;6.55;3.70;;;24.40;50.10;;;;;;5094085;28;20150;-76
2021/06/28 06:06:45;;;;;;;5.40;3.47;;;24.50;50.10;;;;;;5094229;28;20031;-77
2021/06/28 06:09:11;;;;;;;5.15;3.15;;;24.60;50.00;;;;;;5093676;28;20051;-76
2021/06/28 06:11:37;;;;;;;5.50;3.00;;;24.70;49.90;;;;;;5094351;28;20058;-76
2021/06/28 06:14:04;;;;;;;5.13;3.30;;;24.80;49.90;;;;;;5093010;28;20024;-77
2021/06/28 06:16:31;;;;;;;5.97;3.30;;;24.80;49.90;;;;;;5094173;28;20023;-77
2021/06/28 06:18:56;;;;;;;5.32;3.63;;;24.90;49.80;;;;;;5094128;28;20028;-77
2021/06/28 06:21:23;;;;;;;10.07;3.63;;;25.00;49.70;;;;;;5094043;28;20027;-77
2021/06/28 06:23:49;;;;;;;9.63;3.60;;;25.10;49.50;;;;;;5093998;28;20050;-77
2021/06/28 06:26:15;;;;;;;4.95;3.95;;;25.20;49.40;;;;;;5089238;28;20085;-77
2021/06/28 06:28:42;;;;;;;6.63;4.00;;;25.30;49.40;;;;;;5073583;28;20056;-77
2021/06/28 06:31:07;;;;;;;5.45;4.05;;;25.40;49.40;;;;;;5074666;28;20032;-76
2021/06/28 06:33:33;;;;;;;11.23;4.32;;;25.40;49.00;;;;;;5092510;28;20024;-76
2021/06/28 06:35:59;;;;;;;7.95;4.40;;;25.50;48.50;;;;;;5093881;28;20358;-76
2021/06/28 06:38:25;;;;;;;8.52;4.40;;;25.60;48.50;;;;;;5093772;28;20108;-77
2021/06/28 06:40:52;;;;;;;9.85;5.22;;;25.70;48.70;;;;;;5093617;28;20024;-77
2021/06/28 06:43:18;;;;;;;6.65;4.65;;;25.80;48.50;;;;;;5075716;28;20058;-77
2021/06/28 06:45:44;;;;;;;9.00;4.38;;;25.80;48.30;;;;;;5072054;28;20108;-77
2021/06/28 06:48:11;;;;;;;8.35;5.72;;;25.90;48.20;;;;;;5071958;28;20025;-76
2021/06/28 06:50:38;;;;;;;7.10;4.28;;;25.90;47.60;;;;;;5071658;28;20409;-76
2021/06/28 06:53:04;;;;;;;5.43;4.85;;;26.00;48.00;;;;;;5071942;28;20474;-76
2021/06/28 06:55:29;;;;;;;8.75;5.93;;;26.10;47.90;;;;;;5073240;28;20017;-77
2021/06/28 06:57:55;;;;;;;9.40;4.65;;;26.20;47.70;;;;;;5073367;28;20024;-76
2021/06/28 07:00:22;;;;;;;9.63;5.18;;;26.30;47.80;;;;;;5073251;28;20028;-76
2021/06/28 07:02:49;;;;;;;11.55;4.88;;;26.30;47.80;;;;;;5071811;28;20052;-77
2021/06/28 07:05:16;;;;;;;9.88;4.90;;;26.40;47.50;;;;;;5073025;28;20050;-76
2021/06/28 07:07:43;;;;;;;6.72;4.95;;;26.50;47.50;;;;;;5071963;28;20043;-77
2021/06/28 07:10:13;;;;;;;8.55;5.32;;;26.60;46.60;;;;;;5071808;28;20024;-77
2021/06/28 07:12:41;;;;;;;6.97;5.05;;;26.60;46.50;;;;;;5072058;28;20082;-76
2021/06/28 07:15:08;;;;;;;10.77;5.95;;;26.70;46.30;;;;;;5087380;28;20031;-76
2021/06/28 07:17:35;;;;;;;6.65;5.15;;;26.80;45.30;;;;;;5090900;28;20051;-76
2021/06/28 07:20:01;;;;;;;9.35;5.72;;;26.90;45.40;;;;;;5092079;28;20085;-77
2021/06/28 07:22:27;;;;;;;9.25;5.35;;;26.90;45.20;;;;;;5092034;28;20053;-77
2021/06/28 07:24:52;;;;;;;5.60;4.80;;;27.00;44.50;;;;;;5092878;28;20020;-77
2021/06/28 07:27:18;;;;;;;7.10;4.65;;;27.00;44.20;;;;;;5077558;28;20390;-76
2021/06/28 07:29:44;;;;;;;6.55;5.47;;;27.00;44.00;;;;;;5072540;28;20032;-76
2021/06/28 07:32:10;;;;;;;4.80;4.30;;;27.10;43.80;;;;;;5088949;28;20017;-76
2021/06/28 07:34:36;;;;;;;7.22;4.20;;;27.10;44.10;;;;;;5076513;28;20461;-76
2021/06/28 07:37:02;;;;;;;7.90;4.55;;;27.20;44.20;;;;;;5091195;28;20016;-77
2021/06/28 07:39:28;;;;;;;4.13;3.42;;;27.30;44.20;;;;;;5091667;28;20016;-76
2021/06/28 07:41:53;;;;;;;4.28;3.83;;;27.40;44.30;;;;;;5091617;28;20416;-77
2021/06/28 07:44:22;;;;;;;4.35;3.47;;;27.40;43.90;;;;;;5090145;28;20051;-76
2021/06/28 07:46:48;;;;;;;5.13;3.30;;;27.50;43.50;;;;;;5092810;28;20028;-76
2021/06/28 07:49:14;;;;;;;6.53;5.00;;;27.60;43.40;;;;;;5091043;28;20024;-76
2021/06/28 07:51:40;;;;;;;3.55;3.10;;;27.70;43.10;;;;;;5092605;28;20501;-76
2021/06/28 07:54:07;;;;;;;5.53;3.70;;;27.70;43.20;;;;;;5091472;28;20239;-76
2021/06/28 07:56:34;;;;;;;5.55;3.63;;;27.80;43.30;;;;;;5092668;28;20090;-77
2021/06/28 07:59:00;;;;;;;5.57;4.25;;;27.90;43.00;;;;;;5092302;28;20031;-76
2021/06/28 08:01:26;;;;;;;5.53;4.00;;;28.00;42.00;;;;;;5090904;28;20020;-77
2021/06/28 08:03:51;;;;;;;4.35;3.70;;;28.00;42.20;;;;;;5083304;28;20078;-77
2021/06/28 08:06:20;;;;;;;6.38;3.72;;;28.00;42.10;;;;;;5072381;28;20473;-76
2021/06/28 08:08:48;;;;;;;11.32;4.05;;;28.10;42.30;;;;;;5072428;28;20029;-77
2021/06/28 08:11:15;;;;;;;6.65;3.30;;;28.10;41.90;;;;;;5072371;28;20070;-76
2021/06/28 08:13:44;;;;;;;7.72;3.83;;;28.20;42.20;;;;;;5072526;28;20024;-78
2021/06/28 08:16:11;;;;;;;5.30;3.80;;;28.20;41.90;;;;;;5072293;28;20463;-76
2021/06/28 08:18:37;;;;;;;5.88;3.70;;;28.30;41.50;;;;;;5072199;28;20557;-77
2021/06/28 08:21:04;;;;;;;4.43;3.65;;;28.40;41.50;;;;;;5072132;28;20033;-77
2021/06/28 08:23:30;;;;;;;4.60;3.78;;;28.40;41.70;;;;;;5072172;28;20067;-77
2021/06/28 08:25:56;;;;;;;3.75;3.33;;;28.40;41.30;;;;;;5072210;28;20043;-77
2021/06/28 08:28:22;;;;;;;3.80;3.50;;;28.50;41.60;;;;;;5073717;28;20046;-77
2021/06/28 08:30:48;;;;;;;4.90;3.30;;;28.50;41.70;;;;;;5090963;28;20032;-76
2021/06/28 08:33:14;;;;;;;3.50;3.20;;;28.60;41.40;;;;;;5092034;28;20031;-77
2021/06/28 08:35:41;;;;;;;4.25;3.03;;;28.70;41.30;;;;;;5096153;28;20027;-76
2021/06/28 08:38:08;;;;;;;4.45;3.40;;;28.80;41.40;;;;;;5094776;28;20370;-76
2021/06/28 08:40:36;;;;;;;3.10;2.80;;;28.80;41.30;;;;;;5094846;28;20035;-76
2021/06/28 08:43:03;;;;;;;4.00;2.97;;;28.80;41.40;;;;;;5095930;28;20020;-77
2021/06/28 08:45:35;;;;;;;7.03;2.75;;;28.90;41.80;;;;;;5095943;28;20024;-76
2021/06/28 08:48:03;;;;;;;4.75;3.67;;;29.00;41.80;;;;;;5095849;28;20028;-77
2021/06/28 08:50:29;;;;;;;5.05;3.83;;;29.10;41.30;;;;;;5095676;28;20063;-77
2021/06/28 08:52:56;;;;;;;3.38;3.03;;;29.10;41.10;;;;;;5095855;28;20556;-76
2021/06/28 08:55:22;;;;;;;3.72;2.90;;;29.10;40.80;;;;;;5095718;28;20016;-77
2021/06/28 08:57:48;;;;;;;4.93;3.33;;;29.20;40.90;;;;;;5094383;28;20024;-77
2021/06/28 09:00:16;;;;;;;6.00;3.47;;;29.20;40.60;;;;;;5095670;28;20024;-76
2021/06/28 09:02:56;;;;;;;5.43;3.20;;;29.30;40.50;;;;;;5094351;28;20032;-74
2021/06/28 09:05:22;;;;;;;6.13;3.63;;;29.40;40.90;;;;;;5075264;28;20033;-75
2021/06/28 09:07:48;;;;;;;5.38;3.65;;;29.40;40.70;;;;;;5075218;28;20021;-76
2021/06/28 09:10:38;;;;;;;10.55;3.65;;;29.50;40.80;;;;;;5075330;28;20382;-76
2021/06/28 09:13:05;;;;;;;5.70;3.50;;;29.60;40.40;;;;;;5073934;28;20021;-75
2021/06/28 09:15:48;;;;;;;13.32;3.72;;;29.70;40.40;;;;;;5077157;28;20021;-75
2021/06/28 09:18:17;;;;;;;4.63;3.53;;;29.80;40.50;;;;;;5094181;28;20056;-75
2021/06/28 09:20:42;;;;;;;8.98;3.60;;;29.80;39.70;;;;;;5094086;28;20038;-75
2021/06/28 09:23:25;;;;;;;5.05;3.40;;;29.90;39.80;;;;;;5095264;28;20103;-75
2021/06/28 09:25:56;;;;;;;10.05;3.10;;;30.00;40.00;;;;;;5095091;28;20032;-75
2021/06/28 09:28:35;;;;;;;9.25;3.70;;;30.00;40.00;;;;;;5094969;28;20020;-75
2021/06/28 09:31:00;;;;;;;5.47;3.35;;;30.10;40.10;;;;;;5095151;28;20069;-75
2021/06/28 09:33:26;;;;;;;9.65;3.47;;;30.20;39.60;;;;;;5090424;28;20067;-75
2021/06/28 09:35:52;;;;;;;8.25;3.65;;;30.20;39.70;;;;;;5074829;28;20071;-75
2021/06/28 09:38:38;;;;;;;3.08;2.75;;;30.30;40.00;;;;;;5074677;28;20104;-75
2021/06/28 09:41:24;;;;;;;6.90;3.55;;;30.30;40.00;;;;;;5073375;28;20202;-76
2021/06/28 09:43:52;;;;;;;3.58;2.80;;;30.40;39.70;;;;;;5074029;28;20021;-75
2021/06/28 09:46:21;;;;;;;6.07;3.13;;;30.50;39.70;;;;;;5073883;28;20028;-75
2021/06/28 09:48:50;;;;;;;3.97;3.38;;;30.50;39.70;;;;;;5074382;28;20055;-75
2021/06/28 09:51:21;;;;;;;4.45;3.30;;;30.60;39.60;;;;;;5074284;28;20044;-75
2021/06/28 09:53:55;;;;;;;6.97;3.78;;;30.60;39.00;;;;;;5074371;28;20020;-75
2021/06/28 09:56:29;;;;;;;6.05;3.55;;;30.70;38.80;;;;;;5074467;28;20481;-75
2021/06/28 09:58:55;;;;;;;5.15;3.40;;;30.70;39.20;;;;;;5074316;28;20533;-75
2021/06/28 10:01:28;;;;;;;3.75;3.08;;;30.80;39.10;;;;;;5072904;28;20124;-75
2021/06/28 10:03:55;;;;;;;2.97;2.67;;;30.80;39.30;;;;;;5073052;28;20033;-75
2021/06/28 10:08:51;;;;;;;3.35;2.95;;;30.90;39.60;;;;;;5074260;28;20029;-75
2021/06/28 10:11:24;;;;;;;5.88;2.63;;;31.00;39.40;;;;;;5074026;28;20023;-75
2021/06/28 10:13:56;;;;;;;5.32;2.72;;;31.00;39.40;;;;;;5072798;28;20039;-75
2021/06/28 10:16:25;;;;;;;3.25;2.80;;;31.10;38.70;;;;;;5073907;28;20531;-75
2021/06/28 10:18:58;;;;;;;3.13;2.50;;;31.10;38.10;;;;;;5073849;28;20032;-76
2021/06/28 10:21:25;;;;;;;7.07;2.80;;;31.20;38.20;;;;;;5072522;28;20029;-75
2021/06/28 10:23:52;;;;;;;6.25;2.33;;;31.30;38.30;;;;;;5073773;28;20021;-75
2021/06/28 10:26:19;;;;;;;2.58;2.35;;;31.30;38.00;;;;;;5073628;28;20039;-76
2021/06/28 10:28:45;;;;;;;2.88;2.35;;;31.30;38.00;;;;;;5073564;28;20047;-75
2021/06/28 10:31:12;;;;;;;3.63;2.60;;;31.40;37.70;;;;;;5073739;28;20470;-76
2021/06/28 10:33:39;;;;;;;4.22;3.00;;;31.40;37.70;;;;;;5073821;28;20067;-75
2021/06/28 10:36:09;;;;;;;2.95;2.28;;;31.50;37.40;;;;;;5083262;28;20048;-75
2021/06/28 10:38:49;;;;;;;5.20;2.78;;;31.50;37.10;;;;;;5093826;28;20111;-75
2021/06/28 10:41:49;;;;;;;6.10;2.60;;;31.50;36.70;;;;;;5093782;28;20488;-75
2021/06/28 10:44:17;;;;;;;3.47;2.63;;;31.50;36.80;;;;;;5093168;28;20488;-76
2021/06/28 10:46:56;;;;;;;2.83;2.45;;;31.60;36.90;;;;;;5093288;28;20024;-76
2021/06/28 10:49:45;;;;;;;2.70;2.33;;;31.60;35.70;;;;;;5092032;28;20024;-76
2021/06/28 10:52:12;;;;;;;2.92;2.63;;;31.60;36.10;;;;;;5093597;28;20107;-75
2021/06/28 10:54:38;;;;;;;3.22;2.13;;;31.60;36.30;;;;;;5093470;28;20047;-76
2021/06/28 10:57:05;;;;;;;4.07;2.47;;;31.60;36.40;;;;;;5093305;28;20020;-76
2021/06/28 10:59:51;;;;;;;3.10;2.30;;;31.70;36.40;;;;;;5092232;28;20027;-76
2021/06/28 11:02:19;;;;;;;2.50;2.10;;;31.80;36.10;;;;;;5093099;28;20059;-75
2021/06/28 11:04:56;;;;;;;3.97;2.28;;;31.80;36.10;;;;;;5087420;28;20034;-76
2021/06/28 11:07:22;;;;;;;2.47;2.15;;;31.90;35.80;;;;;;5093364;28;20505;-76
2021/06/28 11:09:53;;;;;;;4.10;2.50;;;32.00;35.90;;;;;;5091901;28;20534;-76
2021/06/28 11:12:21;;;;;;;5.38;2.00;;;32.00;34.80;;;;;;5093209;28;20028;-76
2021/06/28 11:15:25;;;;;;;2.20;2.00;;;32.10;35.30;;;;;;5093183;28;20077;-75
2021/06/28 11:17:56;;;;;;;2.47;1.90;;;32.20;35.20;;;;;;5090654;28;20032;-76
2021/06/28 11:20:38;;;;;;;3.00;2.25;;;32.30;35.00;;;;;;5093152;28;20020;-76
2021/06/28 11:23:17;;;;;;;2.55;2.20;;;32.40;34.00;;;;;;5093253;28;20492;-76
2021/06/28 11:25:44;;;;;;;3.10;2.00;;;32.40;34.10;;;;;;5092938;28;20028;-76
2021/06/28 11:28:17;;;;;;;3.00;1.98;;;32.50;32.80;;;;;;5092994;28;20039;-75
2021/06/28 11:31:07;;;;;;;5.10;2.20;;;32.60;32.80;;;;;;5093053;28;20024;-76
2021/06/28 11:33:50;;;;;;;6.45;2.03;;;32.70;32.50;;;;;;5089052;28;20024;-75
2021/06/28 11:36:22;;;;;;;5.55;2.05;;;32.70;32.90;;;;;;5071543;28;20037;-76
2021/06/28 11:38:49;;;;;;;1.65;1.52;;;32.70;29.60;;;;;;5071343;28;20053;-75
2021/06/28 11:41:17;;;;;;;2.13;1.65;;;32.80;30.40;;;;;;5071295;28;20024;-76
2021/06/28 11:44:04;;;;;;;2.72;1.80;;;32.80;30.00;;;;;;5072434;28;20024;-76
2021/06/28 11:46:29;;;;;;;2.55;2.22;;;32.80;29.30;;;;;;5072515;28;20111;-76
2021/06/28 11:48:59;;;;;;;2.30;1.85;;;32.90;29.30;;;;;;5072587;28;20111;-76
2021/06/28 11:51:27;;;;;;;4.65;1.80;;;32.90;29.70;;;;;;5072263;28;20037;-76
2021/06/28 11:54:00;;;;;;;1.80;1.70;;;33.00;29.40;;;;;;5072609;28;20115;-76
2021/06/28 11:56:47;;;;;;;2.80;1.77;;;33.00;29.00;;;;;;5072781;28;20017;-75
2021/06/28 11:59:15;;;;;;;1.75;1.65;;;33.10;29.70;;;;;;5072580;28;20027;-76
2021/06/28 12:01:54;;;;;;;2.17;1.60;;;33.10;28.10;;;;;;5072567;28;20025;-76
2021/06/28 12:04:58;;;;;;;3.28;1.80;;;33.20;28.20;;;;;;5075501;28;20052;-76
2021/06/28 12:07:23;;;;;;;1.58;1.33;;;33.20;27.30;;;;;;5092083;28;20362;-75
2021/06/28 12:09:49;;;;;;;3.17;1.63;;;33.20;26.60;;;;;;5096653;28;20032;-76
2021/06/28 12:12:16;;;;;;;3.00;1.85;;;33.30;27.10;;;;;;5096613;28;20103;-76
2021/06/28 12:14:54;;;;;;;2.20;1.70;;;33.30;27.50;;;;;;5096607;28;20028;-76
2021/06/28 12:17:21;;;;;;;1.70;1.60;;;33.40;26.60;;;;;;5095325;28;20027;-76
2021/06/28 12:19:51;;;;;;;1.67;1.58;;;33.40;26.40;;;;;;5096301;28;20140;-75
2021/06/28 12:22:26;;;;;;;1.67;1.27;;;33.40;26.70;;;;;;5095100;28;20544;-76
2021/06/28 12:25:14;;;;;;;1.40;1.20;;;33.50;25.70;;;;;;5095560;28;20081;-76
2021/06/28 12:27:42;;;;;;;2.88;1.58;;;33.50;26.20;;;;;;5096233;28;20103;-75
2021/06/28 12:30:13;;;;;;;1.60;1.50;;;33.50;25.50;;;;;;5095036;28;20028;-75
2021/06/28 12:32:59;;;;;;;1.70;1.58;;;33.60;26.00;;;;;;5096194;28;20020;-75
2021/06/28 12:35:29;;;;;;;4.35;1.20;;;33.60;26.40;;;;;;5077362;28;20048;-75
2021/06/28 12:38:02;;;;;;;1.40;1.10;;;33.60;26.70;;;;;;5074664;28;20043;-75
2021/06/28 12:40:35;;;;;;;1.27;1.10;;;33.70;24.70;;;;;;5075899;28;20051;-76
2021/06/28 12:43:03;;;;;;;1.77;1.10;;;33.70;25.20;;;;;;5074364;28;20412;-76
2021/06/28 12:45:35;;;;;;;2.90;1.05;;;33.70;25.70;;;;;;5075783;28;20024;-76
2021/06/28 12:48:03;;;;;;;1.30;0.80;;;33.80;25.30;;;;;;5075625;28;20089;-76
2021/06/28 12:50:33;;;;;;;2.55;1.27;;;33.90;24.40;;;;;;5075325;28;20098;-76
2021/06/28 12:52:59;;;;;;;2.97;1.13;;;34.00;25.40;;;;;;5075924;28;20021;-76
2021/06/28 12:55:34;;;;;;;2.20;1.50;;;34.00;25.20;;;;;;5075623;28;20055;-77